sensor_id;sensor_type;location;lat;lon;timestamp;P1;durP1;ratioP1;P2;durP2;ratioP2
46613;SDS011;32338;50.430;6.806;2023-03-24T00:00:57;2.33;;;1.90;;
46613;SDS011;32338;50.430;6.806;2023-03-24T00:03:26;4.18;;;1.77;;
46613;SDS011;32338;50.430;6.806;2023-03-24T00:05:54;4.60;;;2.40;;
46613;SDS011;32338;50.430;6.806;2023-03-24T00:08:22;5.13;;;2.17;;
46613;SDS011;32338;50.430;6.806;2023-03-24T00:10:49;2.83;;;2.17;;
46613;SDS011;32338;50.430;6.806;2023-03-24T00:13:17;3.95;;;2.30;;
46613;SDS011;32338;50.430;6.806;2023-03-24T00:15:44;3.75;;;2.42;;
46613;SDS011;32338;50.430;6.806;2023-03-24T00:18:12;3.00;;;2.08;;
46613;SDS011;32338;50.430;6.806;2023-03-24T00:20:40;2.22;;;1.95;;
46613;SDS011;32338;50.430;6.806;2023-03-24T00:23:10;3.65;;;2.22;;
46613;SDS011;32338;50.430;6.806;2023-03-24T00:25:36;3.80;;;2.30;;
46613;SDS011;32338;50.430;6.806;2023-03-24T00:28:04;3.38;;;2.65;;
46613;SDS011;32338;50.430;6.806;2023-03-24T00:30:31;3.03;;;2.53;;
46613;SDS011;32338;50.430;6.806;2023-03-24T00:32:59;4.45;;;2.83;;
46613;SDS011;32338;50.430;6.806;2023-03-24T00:35:26;4.45;;;2.67;;
46613;SDS011;32338;50.430;6.806;2023-03-24T00:37:55;2.95;;;2.63;;
46613;SDS011;32338;50.430;6.806;2023-03-24T00:40:22;2.92;;;2.72;;
46613;SDS011;32338;50.430;6.806;2023-03-24T00:42:49;4.10;;;2.92;;
46613;SDS011;32338;50.430;6.806;2023-03-24T00:45:17;7.40;;;2.70;;
46613;SDS011;32338;50.430;6.806;2023-03-24T00:47:47;3.97;;;3.30;;
46613;SDS011;32338;50.430;6.806;2023-03-24T00:50:18;2.97;;;2.70;;
46613;SDS011;32338;50.430;6.806;2023-03-24T00:52:50;5.30;;;3.63;;
46613;SDS011;32338;50.430;6.806;2023-03-24T00:55:19;6.70;;;3.00;;
46613;SDS011;32338;50.430;6.806;2023-03-24T00:57:47;3.33;;;3.03;;
46613;SDS011;32338;50.430;6.806;2023-03-24T01:00:15;3.08;;;2.78;;
46613;SDS011;32338;50.430;6.806;2023-03-24T01:02:45;3.25;;;2.85;;
46613;SDS011;32338;50.430;6.806;2023-03-24T01:05:13;3.50;;;3.13;;
46613;SDS011;32338;50.430;6.806;2023-03-24T01:07:41;3.80;;;3.50;;
46613;SDS011;32338;50.430;6.806;2023-03-24T01:10:10;4.78;;;3.20;;
46613;SDS011;32338;50.430;6.806;2023-03-24T01:12:40;6.47;;;3.45;;
46613;SDS011;32338;50.430;6.806;2023-03-24T01:15:08;5.43;;;3.38;;
46613;SDS011;32338;50.430;6.806;2023-03-24T01:17:38;3.47;;;3.17;;
46613;SDS011;32338;50.430;6.806;2023-03-24T01:20:06;5.45;;;4.10;;
46613;SDS011;32338;50.430;6.806;2023-03-24T01:22:36;5.88;;;3.80;;
46613;SDS011;32338;50.430;6.806;2023-03-24T01:25:04;3.80;;;3.45;;
46613;SDS011;32338;50.430;6.806;2023-03-24T01:27:33;6.20;;;3.90;;
46613;SDS011;32338;50.430;6.806;2023-03-24T01:30:02;4.50;;;4.10;;
46613;SDS011;32338;50.430;6.806;2023-03-24T01:32:30;4.60;;;4.20;;
46613;SDS011;32338;50.430;6.806;2023-03-24T01:34:57;4.13;;;3.80;;
46613;SDS011;32338;50.430;6.806;2023-03-24T01:37:24;5.75;;;4.63;;
46613;SDS011;32338;50.430;6.806;2023-03-24T01:39:50;5.85;;;4.85;;
46613;SDS011;32338;50.430;6.806;2023-03-24T01:42:19;5.60;;;5.10;;
46613;SDS011;32338;50.430;6.806;2023-03-24T01:44:49;6.55;;;5.60;;
46613;SDS011;32338;50.430;6.806;2023-03-24T02:10:50;6.85;;;5.93;;
46613;SDS011;32338;50.430;6.806;2023-03-24T02:13:19;7.40;;;6.03;;
46613;SDS011;32338;50.430;6.806;2023-03-24T02:15:50;6.85;;;5.88;;
46613;SDS011;32338;50.430;6.806;2023-03-24T02:18:26;6.63;;;6.03;;
46613;SDS011;32338;50.430;6.806;2023-03-24T02:24:14;6.50;;;5.55;;
46613;SDS011;32338;50.430;6.806;2023-03-24T02:27:07;6.55;;;5.85;;
46613;SDS011;32338;50.430;6.806;2023-03-24T02:30:00;9.40;;;6.10;;
46613;SDS011;32338;50.430;6.806;2023-03-24T02:33:00;6.95;;;6.30;;
46613;SDS011;32338;50.430;6.806;2023-03-24T02:36:07;7.10;;;6.40;;
46613;SDS011;32338;50.430;6.806;2023-03-24T02:39:24;8.52;;;7.18;;
46613;SDS011;32338;50.430;6.806;2023-03-24T02:42:25;8.13;;;7.32;;
46613;SDS011;32338;50.430;6.806;2023-03-24T02:45:04;7.72;;;6.82;;
46613;SDS011;32338;50.430;6.806;2023-03-24T02:47:42;9.65;;;8.02;;
46613;SDS011;32338;50.430;6.806;2023-03-24T02:50:16;9.13;;;8.10;;
46613;SDS011;32338;50.430;6.806;2023-03-24T02:52:49;8.75;;;7.82;;
46613;SDS011;32338;50.430;6.806;2023-03-24T02:55:26;9.65;;;8.40;;
46613;SDS011;32338;50.430;6.806;2023-03-24T02:58:00;9.45;;;8.48;;
46613;SDS011;32338;50.430;6.806;2023-03-24T03:00:31;10.52;;;9.25;;
46613;SDS011;32338;50.430;6.806;2023-03-24T03:03:07;11.25;;;9.43;;
46613;SDS011;32338;50.430;6.806;2023-03-24T03:05:38;10.32;;;9.07;;
46613;SDS011;32338;50.430;6.806;2023-03-24T03:08:10;14.18;;;9.15;;
46613;SDS011;32338;50.430;6.806;2023-03-24T03:10:43;12.35;;;9.10;;
46613;SDS011;32338;50.430;6.806;2023-03-24T03:13:14;9.93;;;8.82;;
46613;SDS011;32338;50.430;6.806;2023-03-24T03:15:46;11.15;;;9.05;;
46613;SDS011;32338;50.430;6.806;2023-03-24T03:18:18;8.85;;;7.82;;
46613;SDS011;32338;50.430;6.806;2023-03-24T03:20:49;9.65;;;8.07;;
46613;SDS011;32338;50.430;6.806;2023-03-24T03:23:21;10.90;;;8.30;;
46613;SDS011;32338;50.430;6.806;2023-03-24T03:25:54;10.18;;;8.23;;
46613;SDS011;32338;50.430;6.806;2023-03-24T03:28:29;8.38;;;7.47;;
46613;SDS011;32338;50.430;6.806;2023-03-24T03:30:59;7.72;;;6.93;;
46613;SDS011;32338;50.430;6.806;2023-03-24T03:33:32;10.20;;;7.57;;
46613;SDS011;32338;50.430;6.806;2023-03-24T03:36:02;8.27;;;7.47;;
46613;SDS011;32338;50.430;6.806;2023-03-24T03:38:36;7.97;;;7.10;;
46613;SDS011;32338;50.430;6.806;2023-03-24T03:41:12;6.60;;;5.85;;
46613;SDS011;32338;50.430;6.806;2023-03-24T03:43:42;6.20;;;5.60;;
46613;SDS011;32338;50.430;6.806;2023-03-24T03:46:10;6.88;;;6.18;;
46613;SDS011;32338;50.430;6.806;2023-03-24T03:48:41;6.95;;;6.30;;
46613;SDS011;32338;50.430;6.806;2023-03-24T03:51:11;6.90;;;5.78;;
46613;SDS011;32338;50.430;6.806;2023-03-24T03:53:41;5.88;;;4.68;;
46613;SDS011;32338;50.430;6.806;2023-03-24T03:56:14;8.45;;;5.47;;
46613;SDS011;32338;50.430;6.806;2023-03-24T03:58:44;6.88;;;5.30;;
46613;SDS011;32338;50.430;6.806;2023-03-24T04:01:13;5.93;;;5.38;;
46613;SDS011;32338;50.430;6.806;2023-03-24T04:03:50;6.18;;;4.90;;
46613;SDS011;32338;50.430;6.806;2023-03-24T04:06:28;6.28;;;5.68;;
46613;SDS011;32338;50.430;6.806;2023-03-24T04:11:45;5.43;;;4.93;;
46613;SDS011;32338;50.430;6.806;2023-03-24T04:14:35;5.65;;;4.90;;
46613;SDS011;32338;50.430;6.806;2023-03-24T04:17:14;4.75;;;4.35;;
46613;SDS011;32338;50.430;6.806;2023-03-24T04:19:55;4.75;;;4.25;;
46613;SDS011;32338;50.430;6.806;2023-03-24T04:22:32;4.07;;;3.78;;
46613;SDS011;32338;50.430;6.806;2023-03-24T04:25:06;4.32;;;3.95;;
46613;SDS011;32338;50.430;6.806;2023-03-24T04:27:43;5.18;;;4.22;;
46613;SDS011;32338;50.430;6.806;2023-03-24T04:30:22;4.30;;;3.90;;
46613;SDS011;32338;50.430;6.806;2023-03-24T04:32:57;4.55;;;3.95;;
46613;SDS011;32338;50.430;6.806;2023-03-24T04:35:27;4.50;;;4.10;;
46613;SDS011;32338;50.430;6.806;2023-03-24T04:38:00;4.30;;;4.00;;
46613;SDS011;32338;50.430;6.806;2023-03-24T04:40:30;5.55;;;3.67;;
46613;SDS011;32338;50.430;6.806;2023-03-24T04:43:00;4.72;;;4.22;;
46613;SDS011;32338;50.430;6.806;2023-03-24T04:45:29;4.05;;;3.72;;
46613;SDS011;32338;50.430;6.806;2023-03-24T04:47:57;3.28;;;2.95;;
46613;SDS011;32338;50.430;6.806;2023-03-24T04:50:27;3.50;;;3.20;;
46613;SDS011;32338;50.430;6.806;2023-03-24T04:52:55;3.70;;;3.40;;
46613;SDS011;32338;50.430;6.806;2023-03-24T04:55:43;3.88;;;2.92;;
46613;SDS011;32338;50.430;6.806;2023-03-24T04:58:20;3.47;;;3.17;;
46613;SDS011;32338;50.430;6.806;2023-03-24T05:00:47;5.18;;;3.03;;
46613;SDS011;32338;50.430;6.806;2023-03-24T05:03:15;3.33;;;2.72;;
46613;SDS011;32338;50.430;6.806;2023-03-24T05:05:43;4.60;;;2.63;;
46613;SDS011;32338;50.430;6.806;2023-03-24T05:08:12;2.45;;;2.25;;
46613;SDS011;32338;50.430;6.806;2023-03-24T05:10:39;2.97;;;2.45;;
46613;SDS011;32338;50.430;6.806;2023-03-24T05:13:06;2.88;;;2.33;;
46613;SDS011;32338;50.430;6.806;2023-03-24T05:15:34;3.70;;;2.33;;
46613;SDS011;32338;50.430;6.806;2023-03-24T05:18:01;2.40;;;2.20;;
46613;SDS011;32338;50.430;6.806;2023-03-24T05:20:30;2.22;;;2.03;;
46613;SDS011;32338;50.430;6.806;2023-03-24T05:22:56;2.65;;;2.28;;
46613;SDS011;32338;50.430;6.806;2023-03-24T05:25:23;4.30;;;2.38;;
46613;SDS011;32338;50.430;6.806;2023-03-24T05:27:50;2.58;;;2.38;;
46613;SDS011;32338;50.430;6.806;2023-03-24T05:30:19;3.05;;;1.85;;
46613;SDS011;32338;50.430;6.806;2023-03-24T05:32:47;2.33;;;2.13;;
46613;SDS011;32338;50.430;6.806;2023-03-24T05:35:14;2.15;;;1.95;;
46613;SDS011;32338;50.430;6.806;2023-03-24T05:37:41;3.35;;;2.22;;
46613;SDS011;32338;50.430;6.806;2023-03-24T05:40:08;2.00;;;1.85;;
46613;SDS011;32338;50.430;6.806;2023-03-24T05:42:36;2.95;;;2.05;;
46613;SDS011;32338;50.430;6.806;2023-03-24T05:45:03;3.38;;;2.25;;
46613;SDS011;32338;50.430;6.806;2023-03-24T05:47:31;4.57;;;2.25;;
46613;SDS011;32338;50.430;6.806;2023-03-24T05:49:59;2.75;;;1.95;;
46613;SDS011;32338;50.430;6.806;2023-03-24T05:52:26;1.77;;;1.63;;
46613;SDS011;32338;50.430;6.806;2023-03-24T05:54:53;3.38;;;2.15;;
46613;SDS011;32338;50.430;6.806;2023-03-24T05:57:23;2.08;;;1.90;;
46613;SDS011;32338;50.430;6.806;2023-03-24T05:59:49;3.00;;;2.10;;
46613;SDS011;32338;50.430;6.806;2023-03-24T06:02:17;3.80;;;2.00;;
46613;SDS011;32338;50.430;6.806;2023-03-24T06:04:44;2.50;;;2.08;;
46613;SDS011;32338;50.430;6.806;2023-03-24T06:07:16;2.35;;;2.13;;
46613;SDS011;32338;50.430;6.806;2023-03-24T06:09:44;3.45;;;2.42;;
46613;SDS011;32338;50.430;6.806;2023-03-24T06:12:14;3.40;;;2.67;;
46613;SDS011;32338;50.430;6.806;2023-03-24T06:14:41;10.98;;;3.08;;
46613;SDS011;32338;50.430;6.806;2023-03-24T06:17:13;10.88;;;3.75;;
46613;SDS011;32338;50.430;6.806;2023-03-24T06:19:45;8.43;;;2.97;;
46613;SDS011;32338;50.430;6.806;2023-03-24T06:22:16;4.65;;;1.92;;
46613;SDS011;32338;50.430;6.806;2023-03-24T06:24:46;9.27;;;1.67;;
46613;SDS011;32338;50.430;6.806;2023-03-24T06:27:20;2.10;;;1.33;;
46613;SDS011;32338;50.430;6.806;2023-03-24T06:30:07;10.32;;;1.58;;
46613;SDS011;32338;50.430;6.806;2023-03-24T06:32:37;3.85;;;1.15;;
46613;SDS011;32338;50.430;6.806;2023-03-24T06:35:14;11.38;;;1.40;;
46613;SDS011;32338;50.430;6.806;2023-03-24T06:37:52;7.43;;;1.30;;
46613;SDS011;32338;50.430;6.806;2023-03-24T06:40:23;8.77;;;1.20;;
46613;SDS011;32338;50.430;6.806;2023-03-24T06:43:09;6.53;;;1.58;;
46613;SDS011;32338;50.430;6.806;2023-03-24T06:45:55;7.45;;;1.02;;
46613;SDS011;32338;50.430;6.806;2023-03-24T06:48:38;10.55;;;1.33;;
46613;SDS011;32338;50.430;6.806;2023-03-24T06:51:26;6.43;;;1.00;;
46613;SDS011;32338;50.430;6.806;2023-03-24T06:54:06;8.73;;;1.58;;
46613;SDS011;32338;50.430;6.806;2023-03-24T06:56:48;9.07;;;1.25;;
46613;SDS011;32338;50.430;6.806;2023-03-24T06:59:21;12.85;;;1.20;;
46613;SDS011;32338;50.430;6.806;2023-03-24T07:01:49;11.90;;;1.23;;
46613;SDS011;32338;50.430;6.806;2023-03-24T07:04:18;10.20;;;1.23;;
46613;SDS011;32338;50.430;6.806;2023-03-24T07:06:49;4.82;;;1.00;;
46613;SDS011;32338;50.430;6.806;2023-03-24T07:09:18;10.63;;;1.10;;
46613;SDS011;32338;50.430;6.806;2023-03-24T07:12:01;7.03;;;1.02;;
46613;SDS011;32338;50.430;6.806;2023-03-24T07:14:30;16.33;;;1.30;;
46613;SDS011;32338;50.430;6.806;2023-03-24T07:16:57;12.75;;;1.48;;
46613;SDS011;32338;50.430;6.806;2023-03-24T07:19:24;5.63;;;1.63;;
46613;SDS011;32338;50.430;6.806;2023-03-24T07:21:51;3.78;;;1.25;;
46613;SDS011;32338;50.430;6.806;2023-03-24T07:24:24;16.42;;;2.13;;
46613;SDS011;32338;50.430;6.806;2023-03-24T07:27:02;19.60;;;3.90;;
46613;SDS011;32338;50.430;6.806;2023-03-24T07:29:33;21.08;;;1.90;;
46613;SDS011;32338;50.430;6.806;2023-03-24T07:32:00;8.07;;;1.58;;
46613;SDS011;32338;50.430;6.806;2023-03-24T07:34:30;12.35;;;1.58;;
46613;SDS011;32338;50.430;6.806;2023-03-24T07:36:57;18.67;;;1.90;;
46613;SDS011;32338;50.430;6.806;2023-03-24T07:39:26;15.20;;;1.83;;
46613;SDS011;32338;50.430;6.806;2023-03-24T07:41:53;15.05;;;2.92;;
46613;SDS011;32338;50.430;6.806;2023-03-24T07:44:21;15.23;;;1.83;;
46613;SDS011;32338;50.430;6.806;2023-03-24T07:46:50;10.15;;;1.63;;
46613;SDS011;32338;50.430;6.806;2023-03-24T07:49:19;14.98;;;1.73;;
46613;SDS011;32338;50.430;6.806;2023-03-24T07:51:46;10.48;;;1.60;;
46613;SDS011;32338;50.430;6.806;2023-03-24T07:54:13;14.88;;;1.50;;
46613;SDS011;32338;50.430;6.806;2023-03-24T07:56:41;14.77;;;1.67;;
46613;SDS011;32338;50.430;6.806;2023-03-24T07:59:08;14.38;;;1.35;;
46613;SDS011;32338;50.430;6.806;2023-03-24T08:01:35;10.23;;;1.60;;
46613;SDS011;32338;50.430;6.806;2023-03-24T08:04:02;13.65;;;2.05;;
46613;SDS011;32338;50.430;6.806;2023-03-24T08:06:30;10.20;;;1.52;;
46613;SDS011;32338;50.430;6.806;2023-03-24T08:08:57;10.15;;;1.80;;
46613;SDS011;32338;50.430;6.806;2023-03-24T08:11:24;9.25;;;1.80;;
46613;SDS011;32338;50.430;6.806;2023-03-24T08:13:54;14.90;;;2.00;;
46613;SDS011;32338;50.430;6.806;2023-03-24T08:16:23;10.73;;;2.13;;
46613;SDS011;32338;50.430;6.806;2023-03-24T08:18:52;9.80;;;1.63;;
46613;SDS011;32338;50.430;6.806;2023-03-24T08:21:22;15.48;;;1.67;;
46613;SDS011;32338;50.430;6.806;2023-03-24T08:23:49;16.90;;;2.15;;
46613;SDS011;32338;50.430;6.806;2023-03-24T08:26:16;9.73;;;1.85;;
46613;SDS011;32338;50.430;6.806;2023-03-24T08:28:43;12.93;;;1.60;;
46613;SDS011;32338;50.430;6.806;2023-03-24T08:31:11;14.50;;;1.67;;
46613;SDS011;32338;50.430;6.806;2023-03-24T08:33:38;9.85;;;1.40;;
46613;SDS011;32338;50.430;6.806;2023-03-24T08:36:05;7.68;;;1.40;;
46613;SDS011;32338;50.430;6.806;2023-03-24T08:38:33;10.25;;;1.75;;
46613;SDS011;32338;50.430;6.806;2023-03-24T08:41:03;8.40;;;1.17;;
46613;SDS011;32338;50.430;6.806;2023-03-24T08:43:32;8.73;;;1.40;;
46613;SDS011;32338;50.430;6.806;2023-03-24T08:46:00;16.85;;;1.65;;
46613;SDS011;32338;50.430;6.806;2023-03-24T08:48:29;11.63;;;1.60;;
46613;SDS011;32338;50.430;6.806;2023-03-24T08:50:57;11.35;;;1.85;;
46613;SDS011;32338;50.430;6.806;2023-03-24T08:53:23;10.18;;;1.23;;
46613;SDS011;32338;50.430;6.806;2023-03-24T08:55:50;13.75;;;1.35;;
46613;SDS011;32338;50.430;6.806;2023-03-24T08:58:18;11.07;;;1.20;;
46613;SDS011;32338;50.430;6.806;2023-03-24T09:00:46;11.75;;;1.58;;
46613;SDS011;32338;50.430;6.806;2023-03-24T09:03:14;14.35;;;1.70;;
46613;SDS011;32338;50.430;6.806;2023-03-24T09:05:47;19.92;;;1.90;;
46613;SDS011;32338;50.430;6.806;2023-03-24T09:08:15;11.20;;;1.65;;
46613;SDS011;32338;50.430;6.806;2023-03-24T09:10:43;12.82;;;1.90;;
46613;SDS011;32338;50.430;6.806;2023-03-24T09:13:11;7.88;;;1.42;;
46613;SDS011;32338;50.430;6.806;2023-03-24T09:15:38;8.82;;;1.70;;
46613;SDS011;32338;50.430;6.806;2023-03-24T09:18:05;11.02;;;1.75;;
46613;SDS011;32338;50.430;6.806;2023-03-24T09:20:31;13.25;;;1.75;;
46613;SDS011;32338;50.430;6.806;2023-03-24T09:23:00;8.05;;;1.25;;
46613;SDS011;32338;50.430;6.806;2023-03-24T09:25:26;6.18;;;1.17;;
46613;SDS011;32338;50.430;6.806;2023-03-24T09:27:53;10.15;;;1.15;;
46613;SDS011;32338;50.430;6.806;2023-03-24T09:30:21;5.80;;;1.20;;
46613;SDS011;32338;50.430;6.806;2023-03-24T09:32:47;5.97;;;1.00;;
46613;SDS011;32338;50.430;6.806;2023-03-24T09:35:14;3.85;;;1.10;;
46613;SDS011;32338;50.430;6.806;2023-03-24T09:37:41;9.15;;;1.00;;
46613;SDS011;32338;50.430;6.806;2023-03-24T09:40:13;4.43;;;1.08;;
46613;SDS011;32338;50.430;6.806;2023-03-24T09:42:45;3.47;;;1.05;;
46613;SDS011;32338;50.430;6.806;2023-03-24T09:45:19;5.22;;;1.33;;
46613;SDS011;32338;50.430;6.806;2023-03-24T09:47:48;6.57;;;1.10;;
46613;SDS011;32338;50.430;6.806;2023-03-24T09:50:22;3.17;;;0.82;;
46613;SDS011;32338;50.430;6.806;2023-03-24T09:52:52;3.10;;;0.82;;
46613;SDS011;32338;50.430;6.806;2023-03-24T09:55:24;6.93;;;0.80;;
46613;SDS011;32338;50.430;6.806;2023-03-24T09:57:54;4.45;;;0.88;;
46613;SDS011;32338;50.430;6.806;2023-03-24T10:00:25;4.55;;;0.75;;
46613;SDS011;32338;50.430;6.806;2023-03-24T10:02:53;4.40;;;0.90;;
46613;SDS011;32338;50.430;6.806;2023-03-24T10:05:25;2.45;;;0.80;;
46613;SDS011;32338;50.430;6.806;2023-03-24T10:07:56;3.90;;;1.17;;
46613;SDS011;32338;50.430;6.806;2023-03-24T10:10:29;5.97;;;1.13;;
46613;SDS011;32338;50.430;6.806;2023-03-24T10:13:05;3.40;;;0.90;;
46613;SDS011;32338;50.430;6.806;2023-03-24T10:15:44;4.88;;;1.10;;
46613;SDS011;32338;50.430;6.806;2023-03-24T10:18:21;3.42;;;1.15;;
46613;SDS011;32338;50.430;6.806;2023-03-24T10:21:01;8.93;;;1.20;;
46613;SDS011;32338;50.430;6.806;2023-03-24T10:23:35;5.25;;;0.85;;
46613;SDS011;32338;50.430;6.806;2023-03-24T10:26:13;4.68;;;0.80;;
46613;SDS011;32338;50.430;6.806;2023-03-24T10:28:50;5.53;;;0.70;;
46613;SDS011;32338;50.430;6.806;2023-03-24T10:31:20;5.10;;;1.27;;
46613;SDS011;32338;50.430;6.806;2023-03-24T10:33:53;5.63;;;0.80;;
46613;SDS011;32338;50.430;6.806;2023-03-24T10:36:20;4.13;;;0.93;;
46613;SDS011;32338;50.430;6.806;2023-03-24T10:38:49;5.97;;;1.00;;
46613;SDS011;32338;50.430;6.806;2023-03-24T10:41:18;6.13;;;0.90;;
46613;SDS011;32338;50.430;6.806;2023-03-24T10:43:46;9.02;;;1.08;;
46613;SDS011;32338;50.430;6.806;2023-03-24T10:46:16;6.40;;;1.00;;
46613;SDS011;32338;50.430;6.806;2023-03-24T10:48:46;3.25;;;0.73;;
46613;SDS011;32338;50.430;6.806;2023-03-24T10:51:15;8.50;;;0.90;;
46613;SDS011;32338;50.430;6.806;2023-03-24T10:53:43;6.35;;;1.10;;
46613;SDS011;32338;50.430;6.806;2023-03-24T10:56:14;4.63;;;0.90;;
46613;SDS011;32338;50.430;6.806;2023-03-24T10:58:44;5.53;;;0.88;;
46613;SDS011;32338;50.430;6.806;2023-03-24T11:01:22;8.50;;;1.00;;
46613;SDS011;32338;50.430;6.806;2023-03-24T11:03:51;9.85;;;1.00;;
46613;SDS011;32338;50.430;6.806;2023-03-24T11:06:23;6.72;;;0.75;;
46613;SDS011;32338;50.430;6.806;2023-03-24T11:11:36;3.70;;;0.80;;
46613;SDS011;32338;50.430;6.806;2023-03-24T11:14:08;3.95;;;0.73;;
46613;SDS011;32338;50.430;6.806;2023-03-24T11:16:47;3.40;;;0.73;;
46613;SDS011;32338;50.430;6.806;2023-03-24T11:19:16;2.90;;;0.77;;
46613;SDS011;32338;50.430;6.806;2023-03-24T11:21:44;5.63;;;0.80;;
46613;SDS011;32338;50.430;6.806;2023-03-24T11:24:12;4.78;;;0.90;;
46613;SDS011;32338;50.430;6.806;2023-03-24T11:26:44;6.13;;;0.93;;
46613;SDS011;32338;50.430;6.806;2023-03-24T11:29:17;6.00;;;0.88;;
46613;SDS011;32338;50.430;6.806;2023-03-24T11:31:49;9.77;;;0.80;;
46613;SDS011;32338;50.430;6.806;2023-03-24T11:34:18;6.63;;;0.70;;
46613;SDS011;32338;50.430;6.806;2023-03-24T11:36:50;4.85;;;0.80;;
46613;SDS011;32338;50.430;6.806;2023-03-24T11:39:19;6.88;;;0.85;;
46613;SDS011;32338;50.430;6.806;2023-03-24T11:42:05;4.60;;;0.70;;
46613;SDS011;32338;50.430;6.806;2023-03-24T11:44:44;4.30;;;0.93;;
46613;SDS011;32338;50.430;6.806;2023-03-24T11:47:15;2.55;;;0.95;;
46613;SDS011;32338;50.430;6.806;2023-03-24T11:49:49;4.20;;;0.70;;
46613;SDS011;32338;50.430;6.806;2023-03-24T11:52:23;2.50;;;0.82;;
46613;SDS011;32338;50.430;6.806;2023-03-24T11:54:52;6.10;;;1.20;;
46613;SDS011;32338;50.430;6.806;2023-03-24T11:57:23;3.22;;;0.88;;
46613;SDS011;32338;50.430;6.806;2023-03-24T12:00:03;3.50;;;0.85;;
46613;SDS011;32338;50.430;6.806;2023-03-24T12:02:39;4.15;;;0.70;;
46613;SDS011;32338;50.430;6.806;2023-03-24T12:05:20;4.25;;;0.50;;
46613;SDS011;32338;50.430;6.806;2023-03-24T12:08:04;4.38;;;0.65;;
46613;SDS011;32338;50.430;6.806;2023-03-24T12:10:52;2.92;;;0.52;;
46613;SDS011;32338;50.430;6.806;2023-03-24T12:13:31;2.28;;;0.77;;
46613;SDS011;32338;50.430;6.806;2023-03-24T12:16:04;7.82;;;0.95;;
46613;SDS011;32338;50.430;6.806;2023-03-24T12:19:04;3.85;;;0.90;;
46613;SDS011;32338;50.430;6.806;2023-03-24T12:21:48;3.88;;;1.00;;
46613;SDS011;32338;50.430;6.806;2023-03-24T12:24:27;4.55;;;0.70;;
46613;SDS011;32338;50.430;6.806;2023-03-24T12:27:06;2.05;;;0.60;;
46613;SDS011;32338;50.430;6.806;2023-03-24T12:29:52;5.25;;;0.80;;
46613;SDS011;32338;50.430;6.806;2023-03-24T12:32:28;2.80;;;0.90;;
46613;SDS011;32338;50.430;6.806;2023-03-24T12:35:08;2.90;;;0.57;;
46613;SDS011;32338;50.430;6.806;2023-03-24T12:38:06;4.50;;;0.93;;
46613;SDS011;32338;50.430;6.806;2023-03-24T12:43:37;6.53;;;1.17;;
46613;SDS011;32338;50.430;6.806;2023-03-24T12:46:18;5.90;;;0.85;;
46613;SDS011;32338;50.430;6.806;2023-03-24T12:49:06;3.03;;;0.80;;
46613;SDS011;32338;50.430;6.806;2023-03-24T12:51:48;4.85;;;0.80;;
46613;SDS011;32338;50.430;6.806;2023-03-24T12:54:26;7.97;;;1.15;;
46613;SDS011;32338;50.430;6.806;2023-03-24T12:57:00;6.65;;;1.08;;
46613;SDS011;32338;50.430;6.806;2023-03-24T12:59:31;5.80;;;0.77;;
46613;SDS011;32338;50.430;6.806;2023-03-24T13:02:08;4.22;;;0.63;;
46613;SDS011;32338;50.430;6.806;2023-03-24T13:04:43;4.75;;;0.70;;
46613;SDS011;32338;50.430;6.806;2023-03-24T13:07:15;6.85;;;0.98;;
46613;SDS011;32338;50.430;6.806;2023-03-24T13:09:45;4.70;;;0.57;;
46613;SDS011;32338;50.430;6.806;2023-03-24T13:12:18;1.05;;;0.50;;
46613;SDS011;32338;50.430;6.806;2023-03-24T13:14:49;9.30;;;0.63;;
46613;SDS011;32338;50.430;6.806;2023-03-24T13:19:53;2.50;;;0.50;;
46613;SDS011;32338;50.430;6.806;2023-03-24T13:22:21;2.17;;;0.70;;
46613;SDS011;32338;50.430;6.806;2023-03-24T13:24:50;4.93;;;0.40;;
46613;SDS011;32338;50.430;6.806;2023-03-24T13:27:20;1.60;;;0.50;;
46613;SDS011;32338;50.430;6.806;2023-03-24T13:33:00;2.85;;;0.57;;
46613;SDS011;32338;50.430;6.806;2023-03-24T13:38:42;2.03;;;0.50;;
46613;SDS011;32338;50.430;6.806;2023-03-24T13:41:16;4.53;;;0.80;;
46613;SDS011;32338;50.430;6.806;2023-03-24T13:43:46;2.88;;;0.60;;
46613;SDS011;32338;50.430;6.806;2023-03-24T13:46:14;5.93;;;0.80;;
46613;SDS011;32338;50.430;6.806;2023-03-24T13:48:43;4.15;;;0.70;;
46613;SDS011;32338;50.430;6.806;2023-03-24T13:51:14;1.38;;;0.50;;
46613;SDS011;32338;50.430;6.806;2023-03-24T13:53:43;4.63;;;0.93;;
46613;SDS011;32338;50.430;6.806;2023-03-24T13:56:21;5.25;;;0.57;;
46613;SDS011;32338;50.430;6.806;2023-03-24T14:01:36;2.85;;;1.00;;
46613;SDS011;32338;50.430;6.806;2023-03-24T14:04:20;6.80;;;0.80;;
46613;SDS011;32338;50.430;6.806;2023-03-24T14:06:52;2.85;;;0.88;;
46613;SDS011;32338;50.430;6.806;2023-03-24T14:09:20;4.30;;;1.15;;
46613;SDS011;32338;50.430;6.806;2023-03-24T14:11:49;3.60;;;1.02;;
46613;SDS011;32338;50.430;6.806;2023-03-24T14:14:33;5.93;;;0.90;;
46613;SDS011;32338;50.430;6.806;2023-03-24T14:17:05;8.38;;;1.02;;
46613;SDS011;32338;50.430;6.806;2023-03-24T14:19:39;7.10;;;0.80;;
46613;SDS011;32338;50.430;6.806;2023-03-24T14:22:13;4.18;;;0.60;;
46613;SDS011;32338;50.430;6.806;2023-03-24T14:24:44;2.67;;;0.70;;
46613;SDS011;32338;50.430;6.806;2023-03-24T14:27:30;6.05;;;0.82;;
46613;SDS011;32338;50.430;6.806;2023-03-24T14:30:02;3.72;;;0.70;;
46613;SDS011;32338;50.430;6.806;2023-03-24T14:32:36;4.05;;;0.70;;
46613;SDS011;32338;50.430;6.806;2023-03-24T14:35:17;3.38;;;0.50;;
46613;SDS011;32338;50.430;6.806;2023-03-24T14:37:48;3.30;;;0.60;;
46613;SDS011;32338;50.430;6.806;2023-03-24T14:40:22;3.60;;;0.60;;
46613;SDS011;32338;50.430;6.806;2023-03-24T14:42:53;4.15;;;0.90;;
46613;SDS011;32338;50.430;6.806;2023-03-24T14:48:30;3.25;;;0.75;;
46613;SDS011;32338;50.430;6.806;2023-03-24T14:51:02;4.32;;;0.85;;
46613;SDS011;32338;50.430;6.806;2023-03-24T14:53:38;2.22;;;0.45;;
46613;SDS011;32338;50.430;6.806;2023-03-24T14:56:07;2.28;;;0.40;;
46613;SDS011;32338;50.430;6.806;2023-03-24T14:58:40;6.03;;;0.77;;
46613;SDS011;32338;50.430;6.806;2023-03-24T15:01:09;2.50;;;0.60;;
46613;SDS011;32338;50.430;6.806;2023-03-24T15:03:38;4.22;;;0.68;;
46613;SDS011;32338;50.430;6.806;2023-03-24T15:06:15;3.28;;;0.50;;
46613;SDS011;32338;50.430;6.806;2023-03-24T15:08:44;4.07;;;0.70;;
46613;SDS011;32338;50.430;6.806;2023-03-24T15:11:15;4.53;;;0.80;;
46613;SDS011;32338;50.430;6.806;2023-03-24T15:13:44;4.82;;;0.80;;
46613;SDS011;32338;50.430;6.806;2023-03-24T15:16:16;3.55;;;1.10;;
46613;SDS011;32338;50.430;6.806;2023-03-24T15:18:45;2.42;;;0.73;;
46613;SDS011;32338;50.430;6.806;2023-03-24T15:21:20;3.38;;;0.80;;
46613;SDS011;32338;50.430;6.806;2023-03-24T15:23:50;4.75;;;0.90;;
46613;SDS011;32338;50.430;6.806;2023-03-24T15:26:19;2.85;;;0.77;;
46613;SDS011;32338;50.430;6.806;2023-03-24T15:28:52;3.08;;;0.90;;
46613;SDS011;32338;50.430;6.806;2023-03-24T15:31:20;6.28;;;1.27;;
46613;SDS011;32338;50.430;6.806;2023-03-24T15:33:49;2.03;;;0.63;;
46613;SDS011;32338;50.430;6.806;2023-03-24T15:36:20;7.38;;;1.20;;
46613;SDS011;32338;50.430;6.806;2023-03-24T15:38:48;7.85;;;0.98;;
46613;SDS011;32338;50.430;6.806;2023-03-24T15:41:17;5.53;;;0.90;;
46613;SDS011;32338;50.430;6.806;2023-03-24T15:43:48;2.95;;;0.80;;
46613;SDS011;32338;50.430;6.806;2023-03-24T15:46:18;4.07;;;0.85;;
46613;SDS011;32338;50.430;6.806;2023-03-24T15:48:47;5.28;;;0.90;;
46613;SDS011;32338;50.430;6.806;2023-03-24T15:51:15;4.10;;;1.02;;
46613;SDS011;32338;50.430;6.806;2023-03-24T15:53:43;3.47;;;1.00;;
46613;SDS011;32338;50.430;6.806;2023-03-24T15:56:17;5.50;;;1.08;;
46613;SDS011;32338;50.430;6.806;2023-03-24T15:58:46;4.38;;;0.98;;
46613;SDS011;32338;50.430;6.806;2023-03-24T16:01:16;3.83;;;0.80;;
46613;SDS011;32338;50.430;6.806;2023-03-24T16:03:45;6.75;;;1.30;;